Time;durP1;ratioP1;P1;durP2;ratioP2;P2;SDS_P1;SDS_P2;PMS_P1;PMS_P2;Temp;Humidity;BMP_temperature;BMP_pressure;BME280_temperature;BME280_humidity;BME280_pressure;Samples;Min_cycle;Max_cycle;Signal;HPM_P1;HPM_P2
2024/03/20 00:01:41;;;;;;;;;;;21.00;61.80;;;;;;1554599;75;740;-72
2024/03/20 00:03:42;;;;;;;;;;;20.90;61.80;;;;;;1554173;75;1920;-72
2024/03/20 00:05:44;;;;;;;;;;;20.90;61.80;;;;;;1546270;76;738;-74
2024/03/20 00:07:46;;;;;;;;;;;20.90;61.80;;;;;;1536612;75;746;-75
2024/03/20 00:09:48;;;;;;;;;;;20.90;61.80;;;;;;1558658;75;775;-74
2024/03/20 00:11:50;;;;;;;;;;;20.90;61.80;;;;;;1556990;75;709;-75
2024/03/20 00:13:52;;;;;;;;;;;20.90;61.90;;;;;;1548084;76;1170;-74
2024/03/20 00:15:54;;;;;;;;;;;20.90;61.90;;;;;;1545480;75;775;-76
2024/03/20 00:17:56;;;;;;;;;;;20.90;61.90;;;;;;1550106;75;639;-75
2024/03/20 00:19:58;;;;;;;;;;;20.90;61.90;;;;;;1555338;76;748;-76
2024/03/20 00:22:00;;;;;;;;;;;20.90;61.90;;;;;;1556084;75;684;-77
2024/03/20 00:24:02;;;;;;;;;;;20.90;61.90;;;;;;1556906;76;1947;-74
2024/03/20 00:26:04;;;;;;;;;;;20.90;61.90;;;;;;1559243;75;757;-76
2024/03/20 00:28:06;;;;;;;;;;;20.90;61.90;;;;;;1559542;75;708;-76
2024/03/20 00:30:08;;;;;;;;;;;20.90;61.90;;;;;;1554603;76;740;-74
2024/03/20 00:32:10;;;;;;;;;;;20.90;61.90;;;;;;1545991;75;802;-73
2024/03/20 00:34:12;;;;;;;;;;;20.90;61.90;;;;;;1546157;76;1158;-74
2024/03/20 00:36:14;;;;;;;;;;;20.90;61.90;;;;;;1555710;76;878;-74
2024/03/20 00:38:16;;;;;;;;;;;20.90;61.90;;;;;;1561118;76;746;-74
2024/03/20 00:40:18;;;;;;;;;;;20.90;61.90;;;;;;1563331;75;763;-74
2024/03/20 00:42:21;;;;;;;;;;;20.90;62.00;;;;;;1551472;76;777;-76
2024/03/20 00:44:23;;;;;;;;;;;20.90;62.00;;;;;;1551081;76;1945;-78
2024/03/20 00:46:25;;;;;;;;;;;20.90;62.00;;;;;;1535640;76;734;-75
2024/03/20 00:48:27;;;;;;;;;;;20.90;62.10;;;;;;1551423;75;685;-75
2024/03/20 00:50:29;;;;;;;;;;;20.90;62.10;;;;;;1557852;75;701;-76
2024/03/20 00:52:31;;;;;;;;;;;20.90;62.10;;;;;;1559584;75;720;-76
2024/03/20 00:54:33;;;;;;;;;;;20.90;62.10;;;;;;1557875;76;1150;-75
2024/03/20 00:56:35;;;;;;;;;;;20.80;62.00;;;;;;1556539;76;958;-75
2024/03/20 00:58:36;;;;;;;;;;;20.90;62.10;;;;;;1545169;76;771;-82
2024/03/20 01:00:41;;;;;;;;;;;20.90;62.10;;;;;;1512951;78;755;-77
2024/03/20 01:02:44;;;;;;;;;;;20.90;62.10;;;;;;1480972;79;1906;-76
2024/03/20 01:04:45;;;;;;;;;;;20.80;62.00;;;;;;1493710;79;1134;-74
2024/03/20 01:06:47;;;;;;;;;;;20.90;62.20;;;;;;1483673;78;743;-75
2024/03/20 01:08:49;;;;;;;;;;;20.90;62.10;;;;;;1526140;77;756;-79
2024/03/20 01:10:51;;;;;;;;;;;20.90;62.10;;;;;;1500115;78;724;-76
2024/03/20 01:12:53;;;;;;;;;;;20.80;62.10;;;;;;1485581;78;765;-75
2024/03/20 01:14:55;;;;;;;;;;;20.80;62.10;;;;;;1496717;79;1149;-75
2024/03/20 01:16:57;;;;;;;;;;;20.90;62.10;;;;;;1495920;78;761;-75
2024/03/20 01:18:59;;;;;;;;;;;20.90;62.20;;;;;;1498129;78;669;-80
2024/03/20 01:21:02;;;;;;;;;;;20.90;62.20;;;;;;1488402;78;753;-70
2024/03/20 01:23:04;;;;;;;;;;;20.90;62.30;;;;;;1497267;78;1930;-80
2024/03/20 01:25:06;;;;;;;;;;;20.80;62.20;;;;;;1486954;78;1171;-75
2024/03/20 01:27:08;;;;;;;;;;;20.80;62.10;;;;;;1498412;78;760;-76
2024/03/20 01:29:10;;;;;;;;;;;20.90;62.30;;;;;;1497504;78;743;-73
2024/03/20 01:31:12;;;;;;;;;;;20.90;62.30;;;;;;1501722;78;682;-74
2024/03/20 01:33:14;;;;;;;;;;;20.90;62.20;;;;;;1496679;78;691;-77
2024/03/20 01:35:16;;;;;;;;;;;20.90;62.30;;;;;;1498662;78;1141;-85
2024/03/20 01:37:18;;;;;;;;;;;20.90;62.20;;;;;;1491484;78;641;-77
2024/03/20 01:39:20;;;;;;;;;;;20.90;62.30;;;;;;1495653;78;726;-80
2024/03/20 01:41:22;;;;;;;;;;;20.90;62.10;;;;;;1493879;79;736;-78
2024/03/20 01:43:24;;;;;;;;;;;20.90;62.20;;;;;;1486573;78;1939;-79
2024/03/20 01:45:26;;;;;;;;;;;20.90;62.10;;;;;;1483324;78;784;-77
2024/03/20 01:47:28;;;;;;;;;;;20.90;62.10;;;;;;1498739;78;714;-77
2024/03/20 01:49:30;;;;;;;;;;;20.90;62.10;;;;;;1496655;78;723;-77
2024/03/20 01:51:32;;;;;;;;;;;20.90;62.10;;;;;;1502030;78;674;-76
2024/03/20 01:53:34;;;;;;;;;;;20.90;62.10;;;;;;1497658;78;1064;-81
2024/03/20 01:55:36;;;;;;;;;;;20.80;62.00;;;;;;1497949;78;865;-75
2024/03/20 01:57:38;;;;;;;;;;;20.90;62.10;;;;;;1497708;78;665;-73
2024/03/20 01:59:40;;;;;;;;;;;20.90;62.20;;;;;;1497821;78;745;-75
2024/03/20 02:01:42;;;;;;;;;;;20.90;62.10;;;;;;1494523;78;711;-74
2024/03/20 02:03:44;;;;;;;;;;;20.90;62.10;;;;;;1499973;78;1950;-79
2024/03/20 02:05:45;;;;;;;;;;;20.90;62.10;;;;;;1492600;78;820;-77
2024/03/20 02:07:47;;;;;;;;;;;20.90;62.10;;;;;;1497051;78;762;-74
2024/03/20 02:09:49;;;;;;;;;;;21.00;62.10;;;;;;1493746;79;668;-73
2024/03/20 02:11:51;;;;;;;;;;;20.90;62.20;;;;;;1494706;78;670;-73
2024/03/20 02:13:54;;;;;;;;;;;20.90;62.20;;;;;;1499922;78;1167;-74
2024/03/20 02:15:56;;;;;;;;;;;20.90;62.10;;;;;;1545402;75;779;-73
2024/03/20 02:17:58;;;;;;;;;;;20.90;62.10;;;;;;1558462;75;751;-75
2024/03/20 02:19:59;;;;;;;;;;;20.90;62.20;;;;;;1549968;75;797;-74
2024/03/20 02:22:02;;;;;;;;;;;20.90;62.20;;;;;;1551501;75;727;-75
2024/03/20 02:24:06;;;;;;;;;;;20.90;62.10;;;;;;1549841;75;1943;-74
2024/03/20 02:26:08;;;;;;;;;;;20.90;62.20;;;;;;1554894;76;721;-73
2024/03/20 02:28:10;;;;;;;;;;;20.90;62.20;;;;;;1561771;75;849;-74
2024/03/20 02:30:15;;;;;;;;;;;20.90;62.10;;;;;;1551526;75;786;-76
2024/03/20 02:32:16;;;;;;;;;;;20.90;62.20;;;;;;1562197;75;687;-75
2024/03/20 02:34:18;;;;;;;;;;;20.90;62.30;;;;;;1554367;75;1180;-73
2024/03/20 02:36:20;;;;;;;;;;;20.90;62.20;;;;;;1559306;75;740;-74
2024/03/20 02:38:24;;;;;;;;;;;20.90;62.30;;;;;;1548454;75;698;-75
2024/03/20 02:40:26;;;;;;;;;;;20.90;62.30;;;;;;1493702;78;1013;-76
2024/03/20 02:42:28;;;;;;;;;;;20.90;62.30;;;;;;1489006;78;698;-75
2024/03/20 02:44:29;;;;;;;;;;;20.90;62.30;;;;;;1489437;78;1949;-75
2024/03/20 02:46:31;;;;;;;;;;;20.90;62.30;;;;;;1489056;78;752;-76
2024/03/20 02:48:34;;;;;;;;;;;20.90;62.30;;;;;;1495288;78;674;-74
2024/03/20 02:50:36;;;;;;;;;;;20.90;62.30;;;;;;1494853;78;668;-75
2024/03/20 02:52:38;;;;;;;;;;;20.90;62.30;;;;;;1490778;78;658;-74
2024/03/20 02:54:40;;;;;;;;;;;20.90;62.30;;;;;;1494336;78;1146;-72
2024/03/20 02:56:42;;;;;;;;;;;20.90;62.40;;;;;;1503514;78;676;-76
2024/03/20 02:58:44;;;;;;;;;;;20.90;62.40;;;;;;1493684;78;720;-78
2024/03/20 03:00:46;;;;;;;;;;;20.90;62.40;;;;;;1492526;79;791;-73
2024/03/20 03:02:48;;;;;;;;;;;20.90;62.40;;;;;;1495855;78;752;-74
2024/03/20 03:04:50;;;;;;;;;;;20.90;62.40;;;;;;1501533;77;1946;-74
2024/03/20 03:06:52;;;;;;;;;;;20.90;62.40;;;;;;1474234;79;736;-74
2024/03/20 03:08:54;;;;;;;;;;;20.90;62.30;;;;;;1491798;78;733;-75
2024/03/20 03:10:56;;;;;;;;;;;20.90;62.30;;;;;;1518005;77;740;-72
2024/03/20 03:12:58;;;;;;;;;;;20.90;62.40;;;;;;1498605;78;756;-74
2024/03/20 03:15:00;;;;;;;;;;;20.90;62.40;;;;;;1490481;78;1091;-74
2024/03/20 03:17:02;;;;;;;;;;;20.90;62.40;;;;;;1484429;78;750;-75
2024/03/20 03:19:09;;;;;;;;;;;20.90;62.40;;;;;;1496346;78;758;-75
2024/03/20 03:21:12;;;;;;;;;;;20.90;62.40;;;;;;1484136;79;1052;-74
2024/03/20 03:23:14;;;;;;;;;;;20.90;62.40;;;;;;1493173;78;709;-77
2024/03/20 03:25:16;;;;;;;;;;;20.90;62.40;;;;;;1486616;79;1959;-73
2024/03/20 03:27:18;;;;;;;;;;;20.90;62.40;;;;;;1482284;79;718;-76
2024/03/20 03:29:20;;;;;;;;;;;20.90;62.40;;;;;;1486590;78;832;-74
2024/03/20 03:31:22;;;;;;;;;;;20.90;62.40;;;;;;1518179;77;770;-74
2024/03/20 03:33:24;;;;;;;;;;;20.90;62.40;;;;;;1516413;76;670;-74
2024/03/20 03:35:26;;;;;;;;;;;20.90;62.40;;;;;;1515827;76;1150;-76
2024/03/20 03:37:28;;;;;;;;;;;20.90;62.40;;;;;;1511385;76;709;-73
2024/03/20 03:39:30;;;;;;;;;;;20.80;62.30;;;;;;1510779;77;750;-76
2024/03/20 03:41:33;;;;;;;;;;;20.90;62.40;;;;;;1513266;77;802;-74
2024/03/20 03:43:36;;;;;;;;;;;20.90;62.40;;;;;;1515946;77;1163;-75
2024/03/20 03:45:38;;;;;;;;;;;20.90;62.40;;;;;;1502190;78;1934;-72
2024/03/20 03:47:40;;;;;;;;;;;20.90;62.50;;;;;;1504293;78;775;-74
2024/03/20 03:49:42;;;;;;;;;;;20.90;62.40;;;;;;1498342;78;697;-74
2024/03/20 03:51:44;;;;;;;;;;;20.90;62.50;;;;;;1501182;78;747;-72
2024/03/20 03:53:46;;;;;;;;;;;20.90;62.50;;;;;;1502012;78;1174;-72
2024/03/20 03:55:48;;;;;;;;;;;20.90;62.50;;;;;;1506501;78;720;-74
2024/03/20 03:57:50;;;;;;;;;;;20.90;62.50;;;;;;1501366;78;744;-74
2024/03/20 03:59:52;;;;;;;;;;;20.90;62.50;;;;;;1505881;78;845;-73
2024/03/20 04:01:54;;;;;;;;;;;20.90;62.50;;;;;;1495886;78;774;-75
2024/03/20 04:03:57;;;;;;;;;;;20.90;62.50;;;;;;1495766;78;1937;-72
2024/03/20 04:05:59;;;;;;;;;;;20.90;62.50;;;;;;1492421;78;787;-73
2024/03/20 04:08:02;;;;;;;;;;;20.90;62.50;;;;;;1506763;78;772;-72
2024/03/20 04:10:04;;;;;;;;;;;20.90;62.50;;;;;;1510442;78;761;-74
2024/03/20 04:12:06;;;;;;;;;;;20.90;62.60;;;;;;1499963;78;877;-74
2024/03/20 04:14:08;;;;;;;;;;;20.90;62.50;;;;;;1494805;78;1133;-72
2024/03/20 04:16:10;;;;;;;;;;;20.90;62.50;;;;;;1500368;78;735;-73
2024/03/20 04:18:11;;;;;;;;;;;20.90;62.50;;;;;;1496907;78;780;-74
2024/03/20 04:20:13;;;;;;;;;;;20.90;62.50;;;;;;1498781;78;692;-74
2024/03/20 04:22:15;;;;;;;;;;;20.90;62.60;;;;;;1505075;78;780;-75
2024/03/20 04:24:18;;;;;;;;;;;20.90;62.60;;;;;;1501823;78;1929;-75
2024/03/20 04:26:19;;;;;;;;;;;20.90;62.60;;;;;;1494518;78;808;-75
2024/03/20 04:28:21;;;;;;;;;;;20.90;62.60;;;;;;1499240;78;646;-74
2024/03/20 04:30:23;;;;;;;;;;;20.90;62.60;;;;;;1493431;78;824;-74
2024/03/20 04:32:25;;;;;;;;;;;20.90;62.70;;;;;;1494977;78;709;-75
2024/03/20 04:34:27;;;;;;;;;;;20.90;62.70;;;;;;1499292;78;1153;-76
2024/03/20 04:36:29;;;;;;;;;;;20.90;62.70;;;;;;1503983;78;680;-75
2024/03/20 04:38:31;;;;;;;;;;;20.90;62.70;;;;;;1506892;78;665;-75
2024/03/20 04:40:34;;;;;;;;;;;20.90;62.70;;;;;;1494420;78;753;-75
2024/03/20 04:42:36;;;;;;;;;;;20.90;62.80;;;;;;1500110;78;741;-75
2024/03/20 04:44:38;;;;;;;;;;;20.90;62.80;;;;;;1505282;78;1937;-75
2024/03/20 04:46:40;;;;;;;;;;;20.90;62.80;;;;;;1501726;78;710;-73
2024/03/20 04:48:41;;;;;;;;;;;20.90;62.80;;;;;;1500814;78;706;-74
2024/03/20 04:50:43;;;;;;;;;;;20.90;62.80;;;;;;1499258;78;766;-77
2024/03/20 04:52:45;;;;;;;;;;;20.90;62.70;;;;;;1509388;78;688;-78
2024/03/20 04:54:47;;;;;;;;;;;20.90;62.80;;;;;;1505763;78;1156;-77
2024/03/20 04:56:49;;;;;;;;;;;20.90;62.80;;;;;;1496247;78;747;-75
2024/03/20 04:58:51;;;;;;;;;;;20.90;62.80;;;;;;1486369;78;756;-72
2024/03/20 05:00:53;;;;;;;;;;;20.90;62.90;;;;;;1498730;78;669;-76
2024/03/20 05:02:55;;;;;;;;;;;20.90;62.80;;;;;;1497832;78;791;-76
2024/03/20 05:04:57;;;;;;;;;;;20.90;62.80;;;;;;1496583;78;1943;-74
2024/03/20 05:06:59;;;;;;;;;;;20.90;62.80;;;;;;1499943;78;816;-76
2024/03/20 05:09:01;;;;;;;;;;;20.90;62.80;;;;;;1500676;78;820;-77
2024/03/20 05:11:02;;;;;;;;;;;20.90;63.00;;;;;;1495886;78;601;-74
2024/03/20 05:13:04;;;;;;;;;;;20.90;63.10;;;;;;1492656;78;733;-77
2024/03/20 05:15:06;;;;;;;;;;;20.90;63.00;;;;;;1483483;78;1126;-75
2024/03/20 05:17:08;;;;;;;;;;;20.90;63.00;;;;;;1491657;78;771;-76
2024/03/20 05:19:10;;;;;;;;;;;20.90;63.10;;;;;;1502593;78;643;-75
2024/03/20 05:21:12;;;;;;;;;;;20.90;63.10;;;;;;1500590;78;738;-81
2024/03/20 05:23:14;;;;;;;;;;;21.00;63.10;;;;;;1496018;78;754;-79
2024/03/20 05:25:16;;;;;;;;;;;20.90;63.10;;;;;;1497346;78;1942;-78
2024/03/20 05:27:18;;;;;;;;;;;21.00;63.20;;;;;;1489094;78;805;-76
2024/03/20 05:29:20;;;;;;;;;;;21.00;63.20;;;;;;1502386;78;737;-78
2024/03/20 05:31:27;;;;;;;;;;;20.90;63.20;;;;;;1503226;78;603;-77
2024/03/20 05:33:28;;;;;;;;;;;20.90;63.20;;;;;;1499807;78;1340;-78
2024/03/20 05:35:30;;;;;;;;;;;20.90;63.30;;;;;;1496007;78;736;-79
2024/03/20 05:37:32;;;;;;;;;;;21.00;63.30;;;;;;1501838;78;806;-75
2024/03/20 05:39:34;;;;;;;;;;;20.90;63.30;;;;;;1507268;78;788;-75
2024/03/20 05:41:36;;;;;;;;;;;21.00;63.40;;;;;;1504881;78;726;-77
2024/03/20 05:43:38;;;;;;;;;;;21.00;63.40;;;;;;1498118;78;1153;-73
2024/03/20 05:45:40;;;;;;;;;;;21.00;63.30;;;;;;1500386;78;1923;-80
2024/03/20 05:47:41;;;;;;;;;;;21.00;63.40;;;;;;1505199;78;591;-76
2024/03/20 05:49:43;;;;;;;;;;;21.00;63.40;;;;;;1505284;78;795;-78
2024/03/20 05:51:47;;;;;;;;;;;21.00;63.40;;;;;;1502396;78;772;-75
2024/03/20 05:53:49;;;;;;;;;;;21.00;63.40;;;;;;1504980;78;1366;-76
2024/03/20 05:55:51;;;;;;;;;;;21.00;63.40;;;;;;1498890;78;987;-73
2024/03/20 05:57:53;;;;;;;;;;;21.00;63.40;;;;;;1500545;78;778;-75
2024/03/20 05:59:54;;;;;;;;;;;21.00;63.50;;;;;;1506358;78;662;-76
2024/03/20 06:01:56;;;;;;;;;;;21.00;63.40;;;;;;1504028;78;674;-77
2024/03/20 06:03:59;;;;;;;;;;;21.00;63.40;;;;;;1494936;78;1133;-75
2024/03/20 06:06:01;;;;;;;;;;;21.00;63.40;;;;;;1489377;78;1930;-75
2024/03/20 06:08:03;;;;;;;;;;;21.00;63.50;;;;;;1501897;78;784;-78
2024/03/20 06:10:08;;;;;;;;;;;20.90;63.40;;;;;;1494720;78;741;-78
2024/03/20 06:12:09;;;;;;;;;;;21.00;63.40;;;;;;1495040;78;1653;-78
2024/03/20 06:14:11;;;;;;;;;;;20.90;63.40;;;;;;1506443;78;1122;-80
2024/03/20 06:16:13;;;;;;;;;;;20.90;63.40;;;;;;1504276;78;728;-78
2024/03/20 06:18:15;;;;;;;;;;;21.00;63.40;;;;;;1509917;78;744;-75
2024/03/20 06:20:17;;;;;;;;;;;20.90;63.40;;;;;;1508852;78;673;-75
2024/03/20 06:22:19;;;;;;;;;;;21.00;63.40;;;;;;1499640;78;668;-74
2024/03/20 06:24:21;;;;;;;;;;;21.00;63.40;;;;;;1503606;78;1103;-77
2024/03/20 06:26:23;;;;;;;;;;;21.00;63.40;;;;;;1504689;78;1975;-78
2024/03/20 06:28:25;;;;;;;;;;;21.00;63.40;;;;;;1507530;78;677;-78
2024/03/20 06:30:27;;;;;;;;;;;21.00;63.40;;;;;;1506984;78;683;-75
2024/03/20 06:32:31;;;;;;;;;;;20.90;63.30;;;;;;1504653;78;848;-79
2024/03/20 06:34:32;;;;;;;;;;;20.90;63.40;;;;;;1509402;78;1183;-79
2024/03/20 06:36:34;;;;;;;;;;;21.00;63.30;;;;;;1499619;78;704;-75
2024/03/20 06:38:36;;;;;;;;;;;20.90;63.40;;;;;;1507298;78;918;-75
2024/03/20 06:40:38;;;;;;;;;;;20.90;63.40;;;;;;1503271;78;687;-75
2024/03/20 06:42:40;;;;;;;;;;;20.90;63.30;;;;;;1499567;78;875;-74
2024/03/20 06:44:43;;;;;;;;;;;20.90;63.40;;;;;;1488768;78;1148;-75
2024/03/20 06:46:45;;;;;;;;;;;21.00;63.30;;;;;;1494005;78;1922;-77
2024/03/20 06:48:48;;;;;;;;;;;20.90;63.30;;;;;;1496291;79;764;-77
2024/03/20 06:50:50;;;;;;;;;;;21.00;63.30;;;;;;1505481;78;752;-78
2024/03/20 06:52:52;;;;;;;;;;;21.00;63.30;;;;;;1499437;78;766;-74
2024/03/20 06:54:53;;;;;;;;;;;20.90;63.20;;;;;;1498698;78;1141;-75
2024/03/20 06:57:03;;;;;;;;;;;20.90;63.30;;;;;;1498250;78;749;-74
2024/03/20 06:59:05;;;;;;;;;;;20.90;63.20;;;;;;1501505;78;1504;-75
2024/03/20 07:01:07;;;;;;;;;;;20.90;63.20;;;;;;1490454;78;624;-77
2024/03/20 07:03:08;;;;;;;;;;;20.90;63.20;;;;;;1503902;78;734;-73
2024/03/20 07:05:12;;;;;;;;;;;20.90;63.20;;;;;;1499174;78;1949;-75
2024/03/20 07:07:14;;;;;;;;;;;20.90;63.20;;;;;;1499440;78;796;-75
2024/03/20 07:09:16;;;;;;;;;;;20.90;63.10;;;;;;1498246;78;689;-76
2024/03/20 07:11:18;;;;;;;;;;;20.90;63.10;;;;;;1501638;78;646;-77
2024/03/20 07:13:20;;;;;;;;;;;20.90;63.10;;;;;;1497360;78;743;-76
2024/03/20 07:15:22;;;;;;;;;;;20.90;63.10;;;;;;1489786;78;1106;-76
2024/03/20 07:17:24;;;;;;;;;;;20.90;63.10;;;;;;1490488;78;749;-76
2024/03/20 07:19:26;;;;;;;;;;;20.90;63.10;;;;;;1498307;78;765;-75
2024/03/20 07:21:28;;;;;;;;;;;20.90;63.20;;;;;;1498953;78;869;-71
2024/03/20 07:23:30;;;;;;;;;;;20.90;63.20;;;;;;1501043;78;1318;-80
2024/03/20 07:25:32;;;;;;;;;;;21.00;63.30;;;;;;1505891;78;1937;-77
2024/03/20 07:27:37;;;;;;;;;;;21.00;63.20;;;;;;1493673;78;704;-75
2024/03/20 07:29:39;;;;;;;;;;;20.90;63.20;;;;;;1495909;78;1204;-78
2024/03/20 07:31:40;;;;;;;;;;;20.90;63.20;;;;;;1497533;78;1102;-77
2024/03/20 07:33:43;;;;;;;;;;;20.90;63.20;;;;;;1503384;78;1164;-71
2024/03/20 07:35:47;;;;;;;;;;;20.90;63.20;;;;;;1501531;78;1140;-78
2024/03/20 07:37:50;;;;;;;;;;;21.00;63.20;;;;;;1501526;78;1212;-77
2024/03/20 07:39:52;;;;;;;;;;;20.90;63.20;;;;;;1501547;78;1156;-76
2024/03/20 07:41:54;;;;;;;;;;;21.00;63.20;;;;;;1501982;78;1111;-77
2024/03/20 07:43:56;;;;;;;;;;;21.00;63.20;;;;;;1499955;78;1145;-79
2024/03/20 07:45:58;;;;;;;;;;;21.00;63.10;;;;;;1500836;78;1931;-79
2024/03/20 07:48:00;;;;;;;;;;;21.00;63.10;;;;;;1499234;78;728;-79
2024/03/20 07:50:03;;;;;;;;;;;21.00;63.10;;;;;;1499220;78;669;-77
2024/03/20 07:52:05;;;;;;;;;;;21.00;63.10;;;;;;1499559;78;721;-76
2024/03/20 07:54:07;;;;;;;;;;;21.10;63.10;;;;;;1500415;78;1153;-75
2024/03/20 07:56:09;;;;;;;;;;;21.00;63.00;;;;;;1493159;78;786;-78
2024/03/20 07:58:13;;;;;;;;;;;21.10;63.10;;;;;;1500602;78;733;-78
2024/03/20 08:00:17;;;;;;;;;;;21.10;63.10;;;;;;1497028;78;1526;-76
2024/03/20 08:02:20;;;;;;;;;;;21.10;63.10;;;;;;1494916;78;1645;-75
2024/03/20 08:04:23;;;;;;;;;;;21.10;63.10;;;;;;1503399;78;1153;-77
2024/03/20 08:06:25;;;;;;;;;;;21.10;63.10;;;;;;1502770;78;1930;-76
2024/03/20 08:08:27;;;;;;;;;;;21.10;63.00;;;;;;1501885;78;751;-77
2024/03/20 08:10:29;;;;;;;;;;;21.10;63.00;;;;;;1497835;78;724;-77
2024/03/20 08:12:31;;;;;;;;;;;21.10;63.00;;;;;;1497698;78;751;-75
2024/03/20 08:14:33;;;;;;;;;;;21.10;63.00;;;;;;1496954;78;1284;-77
2024/03/20 08:16:35;;;;;;;;;;;21.10;63.00;;;;;;1495247;78;680;-77
2024/03/20 08:18:37;;;;;;;;;;;21.20;63.00;;;;;;1483733;78;727;-76
2024/03/20 08:20:39;;;;;;;;;;;21.10;62.90;;;;;;1502292;78;672;-78
2024/03/20 08:22:43;;;;;;;;;;;21.10;62.90;;;;;;1503123;77;689;-77
2024/03/20 08:24:46;;;;;;;;;;;21.20;62.90;;;;;;1497816;78;1167;-79
2024/03/20 08:26:48;;;;;;;;;;;21.20;62.90;;;;;;1498842;78;1918;-76
2024/03/20 08:28:50;;;;;;;;;;;21.20;62.90;;;;;;1500864;78;715;-78
2024/03/20 08:30:52;;;;;;;;;;;21.20;62.90;;;;;;1504380;78;766;-77
2024/03/20 08:32:54;;;;;;;;;;;21.20;62.80;;;;;;1503539;78;741;-75
2024/03/20 08:34:57;;;;;;;;;;;21.20;62.80;;;;;;1496488;78;1179;-76
2024/03/20 08:36:58;;;;;;;;;;;21.20;62.80;;;;;;1489241;78;723;-80
2024/03/20 08:39:00;;;;;;;;;;;21.20;62.80;;;;;;1473604;79;777;-75
2024/03/20 08:41:03;;;;;;;;;;;21.20;62.70;;;;;;1505529;78;737;-76
2024/03/20 08:43:05;;;;;;;;;;;21.20;62.80;;;;;;1498117;78;641;-77
2024/03/20 08:45:08;;;;;;;;;;;21.20;62.80;;;;;;1493858;78;1324;-76
2024/03/20 08:47:10;;;;;;;;;;;21.20;62.70;;;;;;1493850;78;1931;-76
2024/03/20 08:49:12;;;;;;;;;;;21.20;62.70;;;;;;1501362;78;738;-76
2024/03/20 08:51:13;;;;;;;;;;;21.30;62.80;;;;;;1500546;78;716;-77
2024/03/20 08:53:15;;;;;;;;;;;21.20;62.70;;;;;;1487088;78;714;-76
2024/03/20 08:55:17;;;;;;;;;;;21.30;62.80;;;;;;1507507;78;1115;-77
2024/03/20 08:57:19;;;;;;;;;;;21.30;62.70;;;;;;1501337;78;712;-77
2024/03/20 08:59:21;;;;;;;;;;;21.20;62.60;;;;;;1494536;78;715;-79
2024/03/20 09:01:23;;;;;;;;;;;21.20;62.60;;;;;;1500396;78;836;-80
2024/03/20 09:03:25;;;;;;;;;;;21.30;62.70;;;;;;1496502;78;754;-76
2024/03/20 09:05:27;;;;;;;;;;;21.30;62.70;;;;;;1499452;78;1098;-78
2024/03/20 09:07:29;;;;;;;;;;;21.20;62.60;;;;;;1495423;78;1935;-77
2024/03/20 09:09:32;;;;;;;;;;;21.20;62.60;;;;;;1503775;78;769;-77
2024/03/20 09:11:34;;;;;;;;;;;21.30;62.70;;;;;;1499464;78;729;-79
2024/03/20 09:13:36;;;;;;;;;;;21.30;62.70;;;;;;1504362;78;1133;-76
2024/03/20 09:15:39;;;;;;;;;;;21.30;62.70;;;;;;1490664;78;1243;-78
2024/03/20 09:17:41;;;;;;;;;;;21.30;62.60;;;;;;1503135;78;719;-76
2024/03/20 09:19:43;;;;;;;;;;;21.30;62.60;;;;;;1492557;78;639;-77
2024/03/20 09:21:45;;;;;;;;;;;21.30;62.60;;;;;;1501926;78;750;-79
2024/03/20 09:23:46;;;;;;;;;;;21.30;62.60;;;;;;1501486;78;1180;-76
2024/03/20 09:25:49;;;;;;;;;;;21.30;62.60;;;;;;1494385;78;1937;-77
2024/03/20 09:27:51;;;;;;;;;;;21.30;62.60;;;;;;1503625;78;687;-77
2024/03/20 09:29:53;;;;;;;;;;;21.30;62.60;;;;;;1504683;78;748;-78
2024/03/20 09:31:55;;;;;;;;;;;21.30;62.50;;;;;;1512264;78;757;-79
2024/03/20 09:33:59;;;;;;;;;;;21.30;62.50;;;;;;1496441;78;1195;-76
2024/03/20 09:36:01;;;;;;;;;;;21.30;62.50;;;;;;1498170;78;643;-76
2024/03/20 09:38:03;;;;;;;;;;;21.30;62.50;;;;;;1501096;78;541;-75
2024/03/20 09:40:11;;;;;;;;;;;21.30;62.50;;;;;;1510338;78;738;-76
2024/03/20 09:42:12;;;;;;;;;;;21.30;62.50;;;;;;1493500;78;879;-79
2024/03/20 09:44:14;;;;;;;;;;;21.30;62.40;;;;;;1497621;78;1217;-76
2024/03/20 09:46:20;;;;;;;;;;;21.30;62.40;;;;;;1499000;78;1919;-80
2024/03/20 09:48:20;;;;;;;;;;;21.30;62.40;;;;;;1494079;78;922;-77
2024/03/20 09:50:21;;;;;;;;;;;21.40;62.40;;;;;;1503536;78;732;-77
2024/03/20 09:52:24;;;;;;;;;;;21.30;62.40;;;;;;1497120;78;779;-77
2024/03/20 09:54:26;;;;;;;;;;;21.30;62.40;;;;;;1494969;78;1273;-80
2024/03/20 09:56:28;;;;;;;;;;;21.40;62.40;;;;;;1500549;78;622;-76
2024/03/20 09:58:30;;;;;;;;;;;21.30;62.30;;;;;;1502691;78;670;-75
2024/03/20 10:00:32;;;;;;;;;;;21.40;62.30;;;;;;1507832;78;716;-76
2024/03/20 10:02:34;;;;;;;;;;;21.40;62.30;;;;;;1494085;78;669;-76
2024/03/20 10:04:39;;;;;;;;;;;21.30;62.20;;;;;;1495152;78;1229;-76
2024/03/20 10:06:41;;;;;;;;;;;21.30;62.20;;;;;;1472268;79;1925;-75
2024/03/20 10:08:43;;;;;;;;;;;21.30;62.20;;;;;;1504375;78;790;-78
2024/03/20 10:10:45;;;;;;;;;;;21.30;62.10;;;;;;1503362;78;706;-77
2024/03/20 10:12:47;;;;;;;;;;;21.30;62.20;;;;;;1477920;79;722;-79
2024/03/20 10:14:48;;;;;;;;;;;21.30;62.10;;;;;;1489021;78;1381;-79
2024/03/20 10:16:50;;;;;;;;;;;21.30;62.20;;;;;;1500889;78;761;-77
2024/03/20 10:18:53;;;;;;;;;;;21.40;62.10;;;;;;1498098;78;778;-76
2024/03/20 10:20:55;;;;;;;;;;;21.30;62.10;;;;;;1502025;78;782;-77
2024/03/20 10:22:57;;;;;;;;;;;21.30;62.10;;;;;;1505418;78;626;-78
2024/03/20 10:24:59;;;;;;;;;;;21.30;62.00;;;;;;1502612;78;1141;-76
2024/03/20 10:27:05;;;;;;;;;;;21.30;62.00;;;;;;1489166;78;1931;-78
2024/03/20 10:29:08;;;;;;;;;;;21.30;62.00;;;;;;1494433;78;771;-77
2024/03/20 10:31:11;;;;;;;;;;;21.30;62.00;;;;;;1502452;78;809;-76
2024/03/20 10:33:14;;;;;;;;;;;21.30;62.00;;;;;;1511576;78;716;-78
2024/03/20 10:35:18;;;;;;;;;;;21.30;62.00;;;;;;1495039;78;1137;-76
2024/03/20 10:37:21;;;;;;;;;;;21.30;62.00;;;;;;1498213;78;711;-78
2024/03/20 10:39:27;;;;;;;;;;;21.30;62.00;;;;;;1505644;78;716;-76
2024/03/20 10:41:29;;;;;;;;;;;21.30;61.90;;;;;;1494505;78;688;-75
2024/03/20 10:43:31;;;;;;;;;;;21.40;61.90;;;;;;1489396;78;1131;-76
2024/03/20 10:45:32;;;;;;;;;;;21.30;61.90;;;;;;1490834;78;1406;-78
2024/03/20 10:47:34;;;;;;;;;;;21.30;61.90;;;;;;1498285;78;1943;-76
2024/03/20 10:49:36;;;;;;;;;;;21.30;61.90;;;;;;1496237;78;624;-76
2024/03/20 10:51:38;;;;;;;;;;;21.30;61.90;;;;;;1495065;78;682;-77
2024/03/20 10:53:40;;;;;;;;;;;21.30;61.90;;;;;;1492855;78;1151;-77
2024/03/20 10:55:47;;;;;;;;;;;21.30;61.80;;;;;;1489737;78;737;-76
2024/03/20 10:57:52;;;;;;;;;;;21.30;61.90;;;;;;1503786;78;760;-78
2024/03/20 10:59:54;;;;;;;;;;;21.30;61.90;;;;;;1495295;78;744;-77
2024/03/20 11:02:00;;;;;;;;;;;21.30;61.90;;;;;;1495608;78;679;-76
2024/03/20 11:04:02;;;;;;;;;;;21.30;61.80;;;;;;1500610;78;1136;-76
2024/03/20 11:06:23;;;;;;;;;;;21.30;61.80;;;;;;1495477;78;717;-77
2024/03/20 11:08:24;;;;;;;;;;;21.30;61.80;;;;;;1496731;78;734;-76
2024/03/20 11:10:28;;;;;;;;;;;21.30;61.80;;;;;;1497877;78;731;-76
2024/03/20 11:12:30;;;;;;;;;;;21.20;59.10;;;;;;1496765;78;1617;-76
2024/03/20 11:14:32;;;;;;;;;;;21.20;60.30;;;;;;1496516;78;1351;-76
2024/03/20 11:16:34;;;;;;;;;;;21.20;60.50;;;;;;1494517;78;727;-76
2024/03/20 11:18:36;;;;;;;;;;;21.20;60.60;;;;;;1495174;78;715;-76
2024/03/20 11:20:41;;;;;;;;;;;21.20;60.70;;;;;;1476018;79;761;-75
2024/03/20 11:22:43;;;;;;;;;;;21.20;60.80;;;;;;1492299;78;682;-78
2024/03/20 11:24:45;;;;;;;;;;;21.20;60.90;;;;;;1471670;79;1119;-76
2024/03/20 11:26:46;;;;;;;;;;;21.30;61.00;;;;;;1539324;75;1944;-77
2024/03/20 11:28:48;;;;;;;;;;;21.30;61.00;;;;;;1548127;76;716;-77
2024/03/20 11:30:51;;;;;;;;;;;21.30;61.10;;;;;;1541225;76;690;-77
2024/03/20 11:32:54;;;;;;;;;;;21.20;61.00;;;;;;1544873;75;727;-76
2024/03/20 11:34:55;;;;;;;;;;;21.30;61.20;;;;;;1544941;76;1166;-76
2024/03/20 11:36:57;;;;;;;;;;;21.20;61.00;;;;;;1523931;76;713;-76
2024/03/20 11:39:00;;;;;;;;;;;21.20;61.10;;;;;;1541396;76;690;-80
2024/03/20 11:41:01;;;;;;;;;;;21.20;61.20;;;;;;1522138;77;1347;-76
2024/03/20 11:43:03;;;;;;;;;;;21.20;61.10;;;;;;1540710;75;772;-76
2024/03/20 11:45:06;;;;;;;;;;;21.20;61.10;;;;;;1540176;76;1346;-78
2024/03/20 11:47:09;;;;;;;;;;;21.30;61.30;;;;;;1541814;76;1936;-78
2024/03/20 11:49:12;;;;;;;;;;;21.20;61.20;;;;;;1538726;76;736;-78
2024/03/20 11:51:19;;;;;;;;;;;21.20;61.20;;;;;;1550629;76;741;-77
2024/03/20 11:53:18;;;;;;;;;;;21.20;61.20;;;;;;1548621;76;1110;-76
2024/03/20 11:55:21;;;;;;;;;;;21.30;61.30;;;;;;1543630;76;1118;-77
2024/03/20 11:57:23;;;;;;;;;;;21.30;61.30;;;;;;1536704;76;773;-76
2024/03/20 11:59:25;;;;;;;;;;;21.20;61.20;;;;;;1520395;77;777;-75
2024/03/20 12:01:28;;;;;;;;;;;21.20;61.20;;;;;;1543026;75;705;-77
2024/03/20 12:03:32;;;;;;;;;;;21.20;61.20;;;;;;1539633;75;781;-76
2024/03/20 12:05:34;;;;;;;;;;;21.20;61.20;;;;;;1539772;75;763;-79
2024/03/20 12:07:40;;;;;;;;;;;21.20;61.20;;;;;;1537843;76;1926;-78
2024/03/20 12:09:39;;;;;;;;;;;21.20;61.10;;;;;;1543633;76;1496;-79